Terminal Aerodrome Forecast
Issued by NWS Jackson, KY

Home | Current Version | Previous Version | Text Only | Print | Product List | Glossary On
Versions: 1 2 3 4 5 6 7 8 9 10 11 12 13 14 15 16
000
FTUS43 KJKL 061028 AAA
TAFLOZ
TAF AMD
KLOZ 061028Z 0610/0706 VRB03KT 4SM BR SCT100
     FM061200 30005KT P6SM SCT120
     FM061600 34009KT P6SM SCT100
     FM070200 31004KT P6SM SCT250=

USA.gov is the U.S. government's official web portal to all federal, state and local government web resources and services.